Time;durP1;ratioP1;P1;durP2;ratioP2;P2;SDS_P1;SDS_P2;PMS_P1;PMS_P2;Temp;Humidity;BMP_temperature;BMP_pressure;BME280_temperature;BME280_humidity;BME280_pressure;Samples;Min_cycle;Max_cycle;Signal;HPM_P1;HPM_P2
2021/12/26 00:01:18;;;;;;;89.07;35.48;;;;;;;2.08;100.00;100254.41;1743490;81;21480;-65
2021/12/26 00:03:45;;;;;;;84.67;35.35;;;;;;;1.95;100.00;100266.87;1748215;81;21043;-65
2021/12/26 00:06:26;;;;;;;64.97;30.12;;;;;;;1.85;100.00;100269.94;1749118;82;21023;-65
2021/12/26 00:08:55;;;;;;;62.23;29.70;;;;;;;1.80;100.00;100275.48;1744332;81;21026;-65
2021/12/26 00:11:24;;;;;;;54.83;29.42;;;;;;;1.73;100.00;100283.61;1750137;81;20960;-65
2021/12/26 00:13:53;;;;;;;57.75;29.85;;;;;;;1.71;100.00;100303.09;1742034;81;21404;-66
2021/12/26 00:16:20;;;;;;;68.87;34.23;;;;;;;1.70;100.00;100299.29;1750899;81;21601;-65
2021/12/26 00:18:48;;;;;;;79.03;36.55;;;;;;;1.67;100.00;100291.29;1733799;81;21114;-65
2021/12/26 00:21:18;;;;;;;71.65;33.92;;;;;;;1.69;100.00;100311.14;1740554;81;21566;-65
2021/12/26 00:23:46;;;;;;;64.45;31.87;;;;;;;1.68;100.00;100318.77;1738268;81;20998;-66
2021/12/26 00:26:13;;;;;;;69.35;31.62;;;;;;;1.65;100.00;100336.58;1743251;80;20980;-65
2021/12/26 00:28:41;;;;;;;55.17;28.23;;;;;;;1.58;100.00;100339.17;1748767;81;21039;-66
2021/12/26 00:31:08;;;;;;;52.53;26.80;;;;;;;1.58;100.00;100339.17;1752769;81;21063;-64
2021/12/26 00:33:36;;;;;;;53.02;26.82;;;;;;;1.47;100.00;100323.64;1750589;81;21031;-65
2021/12/26 00:36:05;;;;;;;59.20;29.27;;;;;;;1.40;100.00;100307.22;1750718;80;21061;-65
2021/12/26 00:38:34;;;;;;;56.68;28.77;;;;;;;1.40;100.00;100307.22;1749140;81;21072;-66
2021/12/26 00:41:03;;;;;;;65.85;32.48;;;;;;;1.42;100.00;100291.13;1752852;80;21099;-66
2021/12/26 00:43:30;;;;;;;63.92;31.33;;;;;;;1.37;100.00;100288.64;1750235;81;21019;-67
2021/12/26 00:45:57;;;;;;;65.03;32.98;;;;;;;1.39;100.00;100280.59;1748948;81;21601;-66
2021/12/26 00:48:24;;;;;;;65.32;32.23;;;;;;;1.39;100.00;100280.59;1752398;81;21055;-66
2021/12/26 00:50:51;;;;;;;59.48;30.77;;;;;;;1.40;100.00;100279.31;1714508;83;21027;-66
2021/12/26 00:53:20;;;;;;;63.63;30.72;;;;;;;1.40;100.00;100279.31;1682993;84;21011;-66
2021/12/26 00:55:49;;;;;;;34.13;18.65;;;;;;;1.47;100.00;100278.81;1700470;83;21477;-66
2021/12/26 00:58:16;;;;;;;30.35;18.20;;;;;;;1.43;100.00;100257.31;1699451;84;21111;-66
2021/12/26 01:00:47;;;;;;;28.15;16.70;;;;;;;1.35;100.00;100251.05;1693243;83;21548;-66
2021/12/26 01:03:18;;;;;;;25.27;13.72;;;;;;;1.34;100.00;100259.09;1694750;84;21554;-66
2021/12/26 01:05:49;;;;;;;20.48;11.80;;;;;;;1.28;100.00;100265.89;1694992;84;21524;-66
2021/12/26 01:08:19;;;;;;;19.82;11.30;;;;;;;1.18;100.00;100278.68;1686511;84;21024;-66
2021/12/26 01:10:57;;;;;;;19.35;11.93;;;;;;;1.09;100.00;100283.82;1689624;84;21536;-65
2021/12/26 01:13:31;;;;;;;18.35;10.75;;;;;;;1.09;100.00;100292.69;1697827;83;21134;-64
2021/12/26 01:16:01;;;;;;;12.60;8.20;;;;;;;1.07;100.00;100303.27;1691645;84;21089;-64
2021/12/26 01:18:34;;;;;;;14.18;8.15;;;;;;;1.06;100.00;100324.85;1686071;84;21035;-64
2021/12/26 01:21:16;;;;;;;12.03;8.08;;;;;;;1.05;100.00;100325.26;1699163;83;21481;-64
2021/12/26 01:23:34;;;;;;;13.10;7.62;;;;;;;0.99;100.00;100319.83;1691350;83;21055;-64
2021/12/26 01:26:01;;;;;;;11.30;7.35;;;;;;;0.95;100.00;100321.98;1695956;84;21023;-64
2021/12/26 01:28:30;;;;;;;14.05;8.13;;;;;;;0.90;100.00;100321.59;1702482;84;21083;-66
2021/12/26 01:30:59;;;;;;;12.37;7.70;;;;;;;0.85;100.00;100314.00;1693094;84;21062;-65
2021/12/26 01:33:28;;;;;;;12.75;7.80;;;;;;;0.80;100.00;100305.61;1687381;83;21013;-65
2021/12/26 01:36:14;;;;;;;12.33;7.47;;;;;;;0.79;100.00;100304.78;1691500;84;21057;-65
2021/12/26 01:38:59;;;;;;;14.13;8.13;;;;;;;0.82;100.00;100307.70;1683978;84;21051;-65
2021/12/26 01:41:45;;;;;;;13.88;8.73;;;;;;;0.86;100.00;100313.59;1752485;80;21081;-65
2021/12/26 01:44:16;;;;;;;14.95;8.53;;;;;;;0.82;100.00;100312.77;1743124;81;21083;-65
2021/12/26 01:46:49;;;;;;;14.13;8.53;;;;;;;0.84;100.00;100306.44;1750307;81;21024;-66
2021/12/26 01:49:22;;;;;;;16.10;8.70;;;;;;;0.83;100.00;100296.70;1751960;81;21019;-65
2021/12/26 01:52:09;;;;;;;14.40;8.25;;;;;;;0.82;100.00;100289.97;1749782;81;20985;-65
2021/12/26 01:54:45;;;;;;;10.88;6.75;;;;;;;0.81;100.00;100295.88;1748761;81;21060;-65
2021/12/26 01:57:10;;;;;;;10.85;6.00;;;;;;;0.68;100.00;100301.90;1747690;81;21012;-65
2021/12/26 01:59:39;;;;;;;9.65;5.78;;;;;;;0.67;100.00;100292.20;1748381;81;21617;-66
2021/12/26 02:02:10;;;;;;;9.10;5.78;;;;;;;0.65;100.00;100296.84;1749592;81;21094;-66
2021/12/26 02:04:40;;;;;;;9.85;5.75;;;;;;;0.62;100.00;100315.88;1747065;81;21065;-65
2021/12/26 02:07:11;;;;;;;10.08;5.75;;;;;;;0.59;100.00;100315.48;1750132;80;21165;-64
2021/12/26 02:09:40;;;;;;;10.23;6.10;;;;;;;0.62;100.00;100305.30;1752993;81;21010;-65
2021/12/26 02:12:09;;;;;;;9.48;6.17;;;;;;;0.64;100.00;100308.67;1752668;81;21031;-65
2021/12/26 02:14:36;;;;;;;11.53;6.90;;;;;;;0.62;100.00;100319.67;1754369;80;21028;-65
2021/12/26 02:17:06;;;;;;;11.73;6.60;;;;;;;0.64;100.00;100328.10;1723479;81;21023;-65
2021/12/26 02:19:33;;;;;;;10.43;6.60;;;;;;;0.65;100.00;100332.30;1751523;80;21074;-65
2021/12/26 02:22:09;;;;;;;9.63;6.25;;;;;;;0.64;100.00;100337.80;1738530;81;21016;-65
2021/12/26 02:24:44;;;;;;;11.00;6.72;;;;;;;0.68;100.00;100344.96;1751824;80;21047;-65
2021/12/26 02:29:45;;;;;;;12.10;7.08;;;;;;;0.66;100.00;100344.97;1752593;80;21066;-65
2021/12/26 02:32:14;;;;;;;11.10;6.58;;;;;;;0.69;100.00;100339.03;1750086;81;20972;-65
2021/12/26 02:34:41;;;;;;;10.40;6.17;;;;;;;0.73;100.00;100343.23;1752053;81;21043;-65
2021/12/26 02:37:08;;;;;;;11.75;6.42;;;;;;;0.75;100.00;100355.45;1759204;80;21058;-65
2021/12/26 02:39:36;;;;;;;12.33;7.10;;;;;;;0.74;100.00;100360.96;1755640;80;21012;-65
2021/12/26 02:42:04;;;;;;;14.53;8.40;;;;;;;0.77;100.00;100356.29;1755855;82;21051;-65
2021/12/26 02:44:32;;;;;;;26.07;13.78;;;;;;;0.78;100.00;100351.66;1747359;81;21023;-65
2021/12/26 02:46:59;;;;;;;46.68;21.75;;;;;;;0.79;100.00;100357.12;1753021;80;21059;-65
2021/12/26 02:49:26;;;;;;;32.28;15.58;;;;;;;0.83;100.00;100346.55;1753010;80;21038;-65
2021/12/26 02:51:54;;;;;;;26.85;13.18;;;;;;;0.79;100.00;100350.78;1715835;83;21031;-65
2021/12/26 02:54:26;;;;;;;25.85;13.45;;;;;;;0.72;100.00;100349.16;1694180;83;21037;-65
2021/12/26 02:56:55;;;;;;;17.32;10.15;;;;;;;0.75;100.00;100340.26;1749112;81;21028;-65
2021/12/26 02:59:22;;;;;;;19.35;10.00;;;;;;;0.81;100.00;100342.75;1751262;80;21491;-65
2021/12/26 03:01:49;;;;;;;18.90;10.58;;;;;;;0.77;100.00;100344.89;1744299;81;21511;-65
2021/12/26 03:04:17;;;;;;;34.50;16.90;;;;;;;0.80;100.00;100344.88;1752537;81;21079;-65
2021/12/26 03:07:05;;;;;;;35.15;17.40;;;;;;;0.84;100.00;100339.38;1751939;81;21036;-65
2021/12/26 03:09:35;;;;;;;23.57;13.43;;;;;;;0.87;100.00;100338.91;1749698;81;21040;-65
2021/12/26 03:12:00;;;;;;;21.37;12.33;;;;;;;0.83;100.00;100335.14;1748753;81;20997;-65
2021/12/26 03:14:28;;;;;;;19.62;11.35;;;;;;;0.82;100.00;100334.31;1737659;82;21036;-65
2021/12/26 03:17:00;;;;;;;24.47;12.85;;;;;;;0.75;100.00;100344.92;1756493;81;21059;-65
2021/12/26 03:19:34;;;;;;;20.30;11.03;;;;;;;0.79;100.00;100350.78;1752947;80;22165;-65
2021/12/26 03:22:02;;;;;;;25.70;14.00;;;;;;;0.68;100.00;100347.06;1756434;80;21080;-65
2021/12/26 03:24:32;;;;;;;28.20;15.45;;;;;;;0.68;100.00;100347.06;1754780;81;21023;-65
2021/12/26 03:27:03;;;;;;;21.85;11.85;;;;;;;0.65;100.00;100355.97;1750226;81;21516;-65
2021/12/26 03:29:30;;;;;;;15.00;7.97;;;;;;;0.54;100.00;100334.48;1750824;81;21016;-65
2021/12/26 03:31:57;;;;;;;10.78;6.80;;;;;;;0.50;100.00;100334.51;1731514;80;21023;-64
2021/12/26 03:34:23;;;;;;;12.93;7.55;;;;;;;0.49;100.00;100336.21;1757365;81;21019;-65
2021/12/26 03:36:52;;;;;;;12.90;7.72;;;;;;;0.44;100.00;100339.17;1756697;82;21163;-65
2021/12/26 03:39:20;;;;;;;12.03;7.42;;;;;;;0.46;100.00;100341.71;1752945;81;21016;-65
2021/12/26 03:41:47;;;;;;;12.63;7.50;;;;;;;0.44;100.00;100339.17;1750396;80;21011;-64
2021/12/26 03:44:14;;;;;;;15.75;8.93;;;;;;;0.38;100.00;100340.05;1753383;81;21571;-65
2021/12/26 03:46:41;;;;;;;15.18;9.03;;;;;;;0.40;100.00;100352.70;1757118;81;21472;-64
2021/12/26 03:49:08;;;;;;;16.87;9.43;;;;;;;0.40;100.00;100356.50;1755837;81;21051;-64
2021/12/26 03:51:35;;;;;;;15.48;9.10;;;;;;;0.36;100.00;100372.56;1752123;81;21511;-66
2021/12/26 03:54:05;;;;;;;16.82;9.50;;;;;;;0.42;100.00;100376.33;1747873;81;21051;-64
2021/12/26 03:56:33;;;;;;;24.23;12.07;;;;;;;0.39;100.00;100373.39;1749528;81;21106;-65
2021/12/26 03:59:09;;;;;;;34.55;15.58;;;;;;;0.39;100.00;100378.45;1752539;80;21035;-66
2021/12/26 04:01:36;;;;;;;40.33;19.27;;;;;;;0.37;100.00;100377.62;1750316;80;21095;-65
2021/12/26 04:04:04;;;;;;;42.38;20.85;;;;;;;0.42;100.00;100375.49;1746901;81;21102;-65
2021/12/26 04:06:32;;;;;;;40.12;18.15;;;;;;;0.37;100.00;100378.89;1750771;81;21579;-65
2021/12/26 04:09:00;;;;;;;34.50;16.50;;;;;;;0.32;100.00;100379.75;1747748;81;21471;-65
2021/12/26 04:11:26;;;;;;;29.77;14.33;;;;;;;0.28;100.00;100384.41;1750611;81;21024;-66
2021/12/26 04:13:53;;;;;;;26.45;13.80;;;;;;;0.28;100.00;100385.67;1751066;81;21487;-66
2021/12/26 04:16:21;;;;;;;20.10;11.38;;;;;;;0.24;100.00;100394.13;1708865;83;21047;-66
2021/12/26 04:18:49;;;;;;;17.62;10.43;;;;;;;0.13;100.00;100413.16;1706255;84;21033;-66
2021/12/26 04:21:16;;;;;;;19.02;10.65;;;;;;;0.05;100.00;100422.03;1692598;84;21072;-66
2021/12/26 04:23:57;;;;;;;19.10;10.53;;;;;;;-0.09;100.00;100407.30;1700670;84;21550;-66
2021/12/26 04:26:24;;;;;;;19.10;10.72;;;;;;;-0.27;100.00;100411.53;1695734;84;21076;-66
2021/12/26 04:28:52;;;;;;;20.85;10.63;;;;;;;-0.38;100.00;100424.63;1697496;84;21178;-66
2021/12/26 04:31:19;;;;;;;19.40;11.08;;;;;;;-0.52;100.00;100428.86;1699538;84;21029;-67
2021/12/26 04:33:48;;;;;;;20.60;11.75;;;;;;;-0.66;100.00;100413.25;1696160;84;21069;-66
2021/12/26 04:36:15;;;;;;;22.50;12.07;;;;;;;-0.64;100.00;100425.47;1686121;84;21029;-67
2021/12/26 04:38:44;;;;;;;21.65;12.13;;;;;;;-0.65;100.00;100441.49;1750487;81;21111;-66
2021/12/26 04:41:12;;;;;;;21.15;11.22;;;;;;;-0.65;100.00;100433.04;1750002;81;20984;-67
2021/12/26 04:43:52;;;;;;;24.72;12.15;;;;;;;-0.67;100.00;100433.06;1711863;83;21546;-66
2021/12/26 04:46:27;;;;;;;22.73;12.70;;;;;;;-0.66;100.00;100431.38;1752079;81;21062;-66
2021/12/26 04:48:58;;;;;;;22.20;11.48;;;;;;;-0.67;100.00;100448.62;1712508;83;21067;-67
2021/12/26 04:51:25;;;;;;;21.37;11.33;;;;;;;-0.70;100.00;100443.16;1688883;83;21088;-66
2021/12/26 04:53:56;;;;;;;21.65;11.25;;;;;;;-0.70;100.00;100447.37;1692252;83;21051;-67
2021/12/26 04:56:23;;;;;;;20.62;11.33;;;;;;;-0.68;100.00;100455.38;1695240;83;21037;-67
2021/12/26 04:58:50;;;;;;;17.60;10.35;;;;;;;-0.75;100.00;100466.34;1696259;84;21525;-66
2021/12/26 05:01:19;;;;;;;17.42;9.65;;;;;;;-0.78;100.00;100462.53;1692752;84;21569;-67
2021/12/26 05:03:45;;;;;;;19.30;9.85;;;;;;;-0.83;100.00;100482.75;1697525;84;21041;-67
2021/12/26 05:06:12;;;;;;;19.73;10.93;;;;;;;-0.81;100.00;100492.87;1698292;83;21015;-67
2021/12/26 05:08:42;;;;;;;22.20;10.63;;;;;;;-0.81;100.00;100484.86;1678601;84;21517;-67
2021/12/26 05:11:10;;;;;;;21.50;10.65;;;;;;;-0.82;100.00;100478.53;1703169;84;21096;-67
2021/12/26 05:13:38;;;;;;;20.12;10.45;;;;;;;-0.91;100.00;100488.20;1697131;84;21041;-67
2021/12/26 05:16:07;;;;;;;24.37;11.88;;;;;;;-0.90;100.00;100494.93;1697073;84;21560;-67
2021/12/26 05:18:34;;;;;;;22.15;11.20;;;;;;;-0.93;100.00;100510.49;1697021;84;21069;-67
2021/12/26 05:21:03;;;;;;;21.35;10.65;;;;;;;-0.93;100.00;100522.73;1697390;84;21045;-67
2021/12/26 05:23:30;;;;;;;20.23;10.40;;;;;;;-0.92;100.00;100538.30;1697356;84;21049;-67
2021/12/26 05:25:57;;;;;;;19.80;10.80;;;;;;;-0.99;100.00;100531.95;1697052;84;21045;-67
2021/12/26 05:28:24;;;;;;;19.70;10.25;;;;;;;-0.93;100.00;100531.58;1697264;84;21012;-67
2021/12/26 05:30:52;;;;;;;20.00;10.88;;;;;;;-0.96;100.00;100542.92;1697080;84;21053;-67
2021/12/26 05:33:20;;;;;;;18.40;10.35;;;;;;;-0.96;100.00;100544.19;1696612;84;21540;-67
2021/12/26 05:35:49;;;;;;;18.92;10.10;;;;;;;-0.90;100.00;100538.31;1697259;84;21536;-67
2021/12/26 05:38:16;;;;;;;18.17;10.08;;;;;;;-0.91;100.00;100542.92;1697151;84;21088;-67
2021/12/26 05:40:45;;;;;;;19.50;10.43;;;;;;;-0.90;100.00;100533.26;1697467;84;21524;-67
2021/12/26 05:43:12;;;;;;;22.00;10.25;;;;;;;-0.88;100.00;100541.69;1697255;84;21623;-67
2021/12/26 05:45:39;;;;;;;19.05;10.32;;;;;;;-0.96;100.00;100539.13;1697383;84;21482;-67
2021/12/26 05:48:10;;;;;;;20.62;10.10;;;;;;;-0.94;100.00;100545.03;1697113;84;21045;-67
2021/12/26 05:50:37;;;;;;;20.57;9.23;;;;;;;-0.99;100.00;100550.51;1697329;84;21033;-67
2021/12/26 05:53:05;;;;;;;19.62;10.28;;;;;;;-0.96;100.00;100558.08;1677510;84;21551;-67
2021/12/26 05:55:32;;;;;;;20.68;10.58;;;;;;;-1.00;100.00;100550.06;1697066;84;21052;-67
2021/12/26 05:57:59;;;;;;;22.65;11.25;;;;;;;-0.93;100.00;100565.69;1695972;84;21061;-67
2021/12/26 06:00:26;;;;;;;20.85;10.45;;;;;;;-0.90;100.00;100582.53;1732708;81;21075;-66
2021/12/26 06:02:56;;;;;;;18.60;9.88;;;;;;;-0.88;100.00;100572.85;1744845;81;21051;-67
2021/12/26 06:05:22;;;;;;;20.40;10.70;;;;;;;-0.70;100.00;100585.98;1747007;80;21073;-67
2021/12/26 06:07:50;;;;;;;23.92;11.97;;;;;;;-0.61;100.00;100609.17;1753358;81;21056;-67
2021/12/26 06:10:18;;;;;;;20.35;10.23;;;;;;;-0.61;100.00;100612.97;1736610;81;21028;-67
2021/12/26 06:12:46;;;;;;;20.23;10.00;;;;;;;-0.65;100.00;100629.83;1734230;81;21483;-67
2021/12/26 06:15:13;;;;;;;22.22;10.38;;;;;;;-0.65;100.00;100657.64;1732255;81;21506;-67
2021/12/26 06:17:40;;;;;;;25.68;11.95;;;;;;;-0.73;100.00;100651.70;1736766;81;21063;-67
2021/12/26 06:20:25;;;;;;;31.80;15.00;;;;;;;-0.75;100.00;100667.28;1743331;81;21011;-66
2021/12/26 06:22:57;;;;;;;34.73;17.05;;;;;;;-0.71;100.00;100657.61;1730011;81;21565;-67
2021/12/26 06:25:45;;;;;;;35.35;15.98;;;;;;;-0.68;100.00;100630.23;1685295;83;21082;-66
2021/12/26 06:28:22;;;;;;;34.73;16.42;;;;;;;-0.64;100.00;100620.13;1678976;84;21020;-67
2021/12/26 06:31:07;;;;;;;36.60;17.90;;;;;;;-0.56;100.00;100619.33;1708408;81;21493;-67
2021/12/26 06:33:35;;;;;;;41.40;19.17;;;;;;;-0.48;100.00;100628.61;1701367;82;21530;-66
2021/12/26 06:36:21;;;;;;;42.60;19.00;;;;;;;-0.50;100.00;100647.99;1718125;80;21078;-67
2021/12/26 06:39:06;;;;;;;52.60;23.38;;;;;;;-0.54;100.00;100654.30;1632176;85;21153;-67
2021/12/26 06:41:51;;;;;;;57.85;23.75;;;;;;;-0.55;100.00;100666.08;1662511;84;21071;-67
2021/12/26 06:44:23;;;;;;;56.48;24.15;;;;;;;-0.65;100.00;100680.39;1650143;84;21544;-66
2021/12/26 06:46:54;;;;;;;59.18;23.70;;;;;;;-0.63;100.00;100679.11;1679098;84;21512;-66
2021/12/26 06:49:23;;;;;;;56.60;23.85;;;;;;;-0.61;100.00;100674.51;1683109;83;21094;-66
2021/12/26 06:51:52;;;;;;;69.53;26.48;;;;;;;-0.63;100.00;100665.20;1747650;81;20985;-66
2021/12/26 06:54:18;;;;;;;63.13;24.63;;;;;;;-0.76;100.00;100687.06;1723500;82;20957;-66
2021/12/26 06:56:46;;;;;;;53.35;22.00;;;;;;;-0.76;100.00;100684.96;1740308;80;21828;-66
2021/12/26 06:59:13;;;;;;;50.52;21.45;;;;;;;-0.87;100.00;100688.28;1745360;81;20961;-67
2021/12/26 07:01:40;;;;;;;53.63;21.35;;;;;;;-0.82;100.00;100700.51;1739437;81;20965;-67
2021/12/26 07:04:09;;;;;;;48.17;19.85;;;;;;;-0.83;100.00;100695.47;1704455;82;20992;-67
2021/12/26 07:06:39;;;;;;;51.25;21.45;;;;;;;-0.76;100.00;100684.53;1679728;83;21088;-67
2021/12/26 07:09:08;;;;;;;44.83;19.95;;;;;;;-0.74;100.00;100703.08;1725394;81;21067;-66
2021/12/26 07:11:35;;;;;;;51.28;20.65;;;;;;;-0.65;100.00;100701.87;1734706;81;21087;-67
2021/12/26 07:14:03;;;;;;;50.70;22.22;;;;;;;-0.56;100.00;100696.44;1741783;81;21115;-67
2021/12/26 07:16:31;;;;;;;47.03;20.35;;;;;;;-0.46;100.00;100709.55;1727153;82;21588;-67
2021/12/26 07:18:58;;;;;;;45.20;19.82;;;;;;;-0.35;100.00;100705.36;1732761;82;21545;-67
2021/12/26 07:21:27;;;;;;;47.20;19.32;;;;;;;-0.25;100.00;100717.63;1742900;80;21046;-68
2021/12/26 07:23:56;;;;;;;50.33;21.57;;;;;;;-0.17;100.00;100717.66;1747924;80;21546;-68
2021/12/26 07:26:26;;;;;;;54.30;22.30;;;;;;;-0.05;100.00;100726.55;1743605;81;21003;-67
2021/12/26 07:28:52;;;;;;;53.13;21.45;;;;;;;0.01;100.00;100732.90;1764259;81;20996;-67
2021/12/26 07:31:23;;;;;;;59.33;22.82;;;;;;;-0.01;100.00;100710.54;1708365;82;21078;-67
2021/12/26 07:33:52;;;;;;;58.30;22.52;;;;;;;0.05;100.00;100717.31;1669900;84;21051;-67
2021/12/26 07:36:19;;;;;;;57.50;22.95;;;;;;;0.10;100.00;100722.81;1727529;82;21078;-67
2021/12/26 07:38:51;;;;;;;57.27;23.52;;;;;;;0.08;100.00;100727.42;1748179;81;21012;-67
2021/12/26 07:41:19;;;;;;;54.00;21.75;;;;;;;0.09;100.00;100733.77;1743293;81;20995;-67
2021/12/26 07:43:46;;;;;;;54.80;21.65;;;;;;;0.17;100.00;100742.22;1742722;81;21590;-67
2021/12/26 07:46:26;;;;;;;55.73;20.90;;;;;;;0.23;100.00;100742.66;1734725;81;21011;-67
2021/12/26 07:48:55;;;;;;;57.10;22.15;;;;;;;0.24;100.00;100737.17;1753286;81;21044;-67
2021/12/26 07:51:24;;;;;;;53.38;21.85;;;;;;;0.27;100.00;100731.70;1676076;82;21095;-67
2021/12/26 07:54:00;;;;;;;60.78;23.45;;;;;;;0.34;100.00;100724.95;1719411;82;21031;-68
2021/12/26 07:56:45;;;;;;;61.68;25.23;;;;;;;0.39;100.00;100736.78;1610011;88;21070;-67
2021/12/26 07:59:30;;;;;;;59.27;23.83;;;;;;;0.43;100.00;100730.44;1612278;87;21072;-67
2021/12/26 08:02:19;;;;;;;55.88;23.52;;;;;;;0.42;100.00;100734.66;1676650;82;21071;-68
2021/12/26 08:05:05;;;;;;;59.60;22.22;;;;;;;0.53;100.00;100734.70;1729827;82;21054;-67
2021/12/26 08:07:35;;;;;;;55.35;22.77;;;;;;;0.47;100.00;100741.02;1727679;81;21119;-69
2021/12/26 08:10:04;;;;;;;52.48;21.02;;;;;;;0.45;100.00;100762.54;1741737;81;21008;-68
2021/12/26 08:12:33;;;;;;;63.05;24.65;;;;;;;0.54;100.00;100762.97;1751652;81;20988;-67
2021/12/26 08:15:02;;;;;;;54.80;23.02;;;;;;;0.43;100.00;100764.62;1733724;82;21036;-68
2021/12/26 08:17:30;;;;;;;63.00;25.52;;;;;;;0.56;100.00;100758.31;1733063;82;21011;-68
2021/12/26 08:19:58;;;;;;;55.85;22.77;;;;;;;0.65;100.00;100761.30;1748333;82;21007;-68
2021/12/26 08:22:25;;;;;;;56.00;22.07;;;;;;;0.73;100.00;100770.14;1740916;81;21023;-68
2021/12/26 08:24:52;;;;;;;55.92;22.73;;;;;;;0.71;100.00;100777.77;1739969;82;21455;-68
2021/12/26 08:27:20;;;;;;;50.30;20.77;;;;;;;0.56;100.00;100777.74;1741683;81;21494;-68
2021/12/26 08:29:47;;;;;;;50.52;21.10;;;;;;;0.61;100.00;100768.48;1740405;81;21037;-68
2021/12/26 08:32:16;;;;;;;39.60;18.00;;;;;;;0.56;100.00;100773.94;1735974;82;21043;-67
2021/12/26 08:34:44;;;;;;;36.93;16.52;;;;;;;0.40;100.00;100773.06;1741699;82;21053;-68
2021/12/26 08:37:13;;;;;;;33.63;15.85;;;;;;;0.47;100.00;100773.95;1741437;82;21109;-68
2021/12/26 08:39:43;;;;;;;29.37;13.30;;;;;;;0.34;100.00;100774.32;1737646;81;21046;-68
2021/12/26 08:42:13;;;;;;;25.65;13.53;;;;;;;0.26;100.00;100780.63;1739124;82;21503;-68
2021/12/26 08:44:42;;;;;;;26.20;13.18;;;;;;;0.15;100.00;100784.83;1741657;82;21045;-68
2021/12/26 08:47:10;;;;;;;23.32;12.50;;;;;;;0.13;100.00;100774.70;1741964;81;21016;-68
2021/12/26 08:49:38;;;;;;;22.15;12.30;;;;;;;0.03;100.00;100774.24;1703025;83;21073;-68
2021/12/26 08:52:08;;;;;;;21.68;11.78;;;;;;;0.03;100.00;100784.37;1741437;82;21060;-68
2021/12/26 08:54:36;;;;;;;24.57;12.80;;;;;;;-0.02;100.00;100788.55;1689034;84;21038;-67
2021/12/26 08:57:06;;;;;;;21.50;12.60;;;;;;;0.01;100.00;100788.58;1700223;82;21085;-68
2021/12/26 08:59:33;;;;;;;24.40;13.15;;;;;;;-0.01;100.00;100788.56;1715061;82;21059;-67
2021/12/26 09:02:03;;;;;;;25.40;12.78;;;;;;;0.10;100.00;100788.63;1736573;82;21004;-67
2021/12/26 09:04:31;;;;;;;24.85;12.95;;;;;;;0.04;100.00;100792.80;1726166;81;21039;-68
2021/12/26 09:06:58;;;;;;;23.65;13.22;;;;;;;0.04;100.00;100788.61;1752368;81;21032;-68
2021/12/26 09:09:29;;;;;;;26.50;13.72;;;;;;;0.00;100.00;100794.50;1730219;82;21539;-67
2021/12/26 09:11:58;;;;;;;27.02;14.10;;;;;;;0.13;100.00;100801.27;1713182;83;21534;-67
2021/12/26 09:14:28;;;;;;;25.30;13.75;;;;;;;0.07;100.00;100792.39;1728985;82;21060;-68
2021/12/26 09:16:57;;;;;;;25.97;14.33;;;;;;;0.15;100.00;100788.20;1719798;82;21020;-68
2021/12/26 09:19:28;;;;;;;26.07;14.40;;;;;;;0.19;100.00;100783.58;1729167;83;21088;-68
2021/12/26 09:22:01;;;;;;;29.25;14.87;;;;;;;0.21;100.00;100790.34;1732160;83;21047;-68
2021/12/26 09:24:28;;;;;;;28.02;15.20;;;;;;;0.28;100.00;100790.77;1728232;82;21005;-68
2021/12/26 09:26:58;;;;;;;30.80;14.95;;;;;;;0.24;100.00;100787.80;1676598;84;21045;-68
2021/12/26 09:29:27;;;;;;;33.95;16.00;;;;;;;0.09;100.00;100784.81;1670925;84;21079;-68
2021/12/26 09:31:56;;;;;;;27.73;14.00;;;;;;;0.05;100.00;100790.70;1654566;85;21622;-68
2021/12/26 09:34:25;;;;;;;32.05;15.90;;;;;;;0.10;100.00;100787.36;1656632;85;21075;-68
2021/12/26 09:36:51;;;;;;;41.13;19.17;;;;;;;0.14;100.00;100790.72;1692867;83;21064;-68
2021/12/26 09:39:19;;;;;;;55.23;24.95;;;;;;;0.22;100.00;100789.48;1655067;85;21064;-68
2021/12/26 09:41:46;;;;;;;48.70;22.17;;;;;;;0.23;100.00;100790.77;1664774;84;21048;-68
2021/12/26 09:44:13;;;;;;;60.45;26.25;;;;;;;-0.04;100.00;100796.55;1699096;83;21063;-68
2021/12/26 09:46:41;;;;;;;88.03;32.40;;;;;;;-0.20;100.00;100802.00;1701392;83;21542;-68
2021/12/26 09:49:08;;;;;;;44.35;20.32;;;;;;;-0.26;100.00;100808.29;1704746;84;21079;-67
2021/12/26 09:51:35;;;;;;;47.62;20.80;;;;;;;-0.44;100.00;100804.81;1706327;83;21524;-68
2021/12/26 09:54:05;;;;;;;36.42;17.27;;;;;;;-0.58;100.00;100803.05;1707705;83;21052;-68
2021/12/26 09:56:33;;;;;;;43.73;18.27;;;;;;;-0.67;100.00;100804.68;1700131;84;21049;-67
2021/12/26 09:59:07;;;;;;;36.13;16.30;;;;;;;-0.82;100.00;100801.61;1703924;84;21041;-67
2021/12/26 10:01:44;;;;;;;39.48;17.98;;;;;;;-0.89;100.00;100798.63;1704593;84;21017;-68
2021/12/26 10:04:28;;;;;;;41.02;17.23;;;;;;;-0.92;100.00;100803.64;1681377;84;21097;-67
2021/12/26 10:07:03;;;;;;;35.40;16.65;;;;;;;-0.88;100.00;100799.03;1709480;83;21551;-68
2021/12/26 10:09:32;;;;;;;33.58;15.15;;;;;;;-0.91;100.00;100793.11;1685858;82;21045;-68
2021/12/26 10:12:01;;;;;;;35.73;15.53;;;;;;;-0.91;100.00;100793.11;1721529;82;21012;-68
2021/12/26 10:14:33;;;;;;;36.30;17.02;;;;;;;-0.87;100.00;100796.11;1704542;84;21048;-67
2021/12/26 10:17:07;;;;;;;32.70;16.57;;;;;;;-0.84;100.00;100793.16;1702362;84;21044;-68
2021/12/26 10:19:39;;;;;;;41.55;18.10;;;;;;;-0.96;100.00;100796.87;1714185;83;21548;-68
2021/12/26 10:22:08;;;;;;;45.65;18.40;;;;;;;-1.04;100.00;100797.22;1682446;84;21090;-67
2021/12/26 10:24:39;;;;;;;40.25;17.85;;;;;;;-1.05;100.00;100786.70;1720683;82;21098;-67
2021/12/26 10:27:14;;;;;;;30.32;15.20;;;;;;;-0.99;100.00;100782.09;1757367;81;21523;-67
2021/12/26 10:29:48;;;;;;;29.80;14.95;;;;;;;-0.98;100.00;100778.32;1754975;80;21034;-67
2021/12/26 10:32:21;;;;;;;30.30;15.50;;;;;;;-0.96;100.00;100780.87;1767667;81;21072;-67
2021/12/26 10:35:01;;;;;;;34.05;15.68;;;;;;;-0.99;100.00;100777.04;1757418;81;21535;-68
2021/12/26 10:37:48;;;;;;;36.13;16.30;;;;;;;-1.03;100.00;100777.03;1771754;81;21114;-67
2021/12/26 10:40:23;;;;;;;30.40;14.47;;;;;;;-0.98;100.00;100773.69;1771824;81;21000;-67
2021/12/26 10:42:55;;;;;;;30.80;15.25;;;;;;;-0.91;100.00;100772.89;1771980;81;21024;-67
2021/12/26 10:45:32;;;;;;;28.92;14.43;;;;;;;-0.94;100.00;100781.72;1771815;81;21039;-67
2021/12/26 10:48:06;;;;;;;28.07;13.98;;;;;;;-0.91;100.00;100781.34;1759055;81;21051;-67
2021/12/26 10:50:38;;;;;;;23.50;10.85;;;;;;;-0.84;100.00;100789.37;1763210;80;20987;-67
2021/12/26 10:53:11;;;;;;;20.57;10.93;;;;;;;-0.95;100.00;100797.70;1768955;81;21020;-67
2021/12/26 10:55:41;;;;;;;24.72;11.08;;;;;;;-0.96;100.00;100802.34;1763278;81;21028;-67
2021/12/26 10:58:12;;;;;;;23.62;11.95;;;;;;;-0.95;100.00;100805.29;1771976;81;22174;-67
2021/12/26 11:00:43;;;;;;;24.37;11.70;;;;;;;-0.90;100.00;100804.49;1766424;81;21000;-67
2021/12/26 11:03:22;;;;;;;23.40;10.43;;;;;;;-1.06;100.00;100806.05;1757513;81;21007;-67
2021/12/26 11:05:55;;;;;;;30.65;13.68;;;;;;;-1.03;100.00;100808.61;1766702;81;21055;-67
2021/12/26 11:08:31;;;;;;;34.18;16.07;;;;;;;-0.96;100.00;100811.19;1767699;81;21070;-67
2021/12/26 11:11:03;;;;;;;40.55;18.67;;;;;;;-0.90;100.00;100807.45;1755855;81;21028;-67
2021/12/26 11:13:32;;;;;;;47.20;21.85;;;;;;;-0.93;100.00;100820.05;1750994;80;21523;-67
2021/12/26 11:16:06;;;;;;;23.25;11.20;;;;;;;-0.95;100.00;100817.92;1772756;81;21067;-67
2021/12/26 11:18:36;;;;;;;43.15;19.55;;;;;;;-0.94;100.00;100825.52;1749900;80;21059;-67
2021/12/26 11:21:13;;;;;;;62.80;25.77;;;;;;;-0.95;100.00;100825.50;1729063;81;21038;-68
2021/12/26 11:23:43;;;;;;;44.00;19.15;;;;;;;-0.95;100.00;100825.11;1744255;81;21570;-68